Time;durP1;ratioP1;P1;durP2;ratioP2;P2;SDS_P1;SDS_P2;PMS_P1;PMS_P2;Temp;Humidity;BMP_temperature;BMP_pressure;BME280_temperature;BME280_humidity;BME280_pressure;Samples;Min_cycle;Max_cycle;Signal;HPM_P1;HPM_P2
2021/08/24 00:02:12;;;;;;;4.03;1.67;;;;;;;;;;5102737;28;20401;-79
2021/08/24 00:04:37;;;;;;;4.43;1.88;;;;;;;;;;5101466;28;20035;-79
2021/08/24 00:07:03;;;;;;;3.70;1.80;;;;;;;;;;5101699;28;20054;-79
2021/08/24 00:09:28;;;;;;;6.13;1.45;;;;;;;;;;5101607;28;20031;-79
2021/08/24 00:11:54;;;;;;;3.92;1.65;;;;;;;;;;5101242;28;20115;-79
2021/08/24 00:14:19;;;;;;;9.55;1.83;;;;;;;;;;5083601;28;20039;-79
2021/08/24 00:16:45;;;;;;;2.67;1.77;;;;;;;;;;5083250;28;20086;-79
2021/08/24 00:19:11;;;;;;;11.70;1.50;;;;;;;;;;5100561;28;20051;-79
2021/08/24 00:21:37;;;;;;;6.90;1.60;;;;;;;;;;5084448;28;20129;-79
2021/08/24 00:24:04;;;;;;;8.43;1.85;;;;;;;;;;5090187;28;20032;-79
2021/08/24 00:26:29;;;;;;;3.78;1.80;;;;;;;;;;5064069;28;20032;-79
2021/08/24 00:28:55;;;;;;;2.15;1.60;;;;;;;;;;5079371;28;20041;-79
2021/08/24 00:31:20;;;;;;;9.77;1.70;;;;;;;;;;5062766;28;20040;-79
2021/08/24 00:33:46;;;;;;;3.47;1.33;;;;;;;;;;5062914;28;20092;-79
2021/08/24 00:36:13;;;;;;;4.50;1.73;;;;;;;;;;5079213;28;20070;-79
2021/08/24 00:38:39;;;;;;;2.38;1.10;;;;;;;;;;5078541;28;20036;-79
2021/08/24 00:41:05;;;;;;;4.40;1.23;;;;;;;;;;5079369;28;20032;-79
2021/08/24 00:43:34;;;;;;;6.22;1.35;;;;;;;;;;5077805;28;20695;-79
2021/08/24 00:46:25;;;;;;;2.10;1.50;;;;;;;;;;5061128;28;20024;-78
2021/08/24 00:48:52;;;;;;;5.15;1.63;;;;;;;;;;5079085;28;20052;-79
2021/08/24 00:51:20;;;;;;;6.78;2.22;;;;;;;;;;5079814;28;20128;-79
2021/08/24 00:53:48;;;;;;;3.47;1.45;;;;;;;;;;5062753;28;20028;-79
2021/08/24 00:56:14;;;;;;;6.00;1.77;;;;;;;;;;5077862;28;20071;-78
2021/08/24 00:58:40;;;;;;;4.18;1.80;;;;;;;;;;5059678;28;20029;-78
2021/08/24 01:01:05;;;;;;;5.72;1.83;;;;;;;;;;5077785;28;20503;-78
2021/08/24 01:03:36;;;;;;;4.82;2.00;;;;;;;;;;5059770;28;20024;-78
2021/08/24 01:06:09;;;;;;;2.78;1.90;;;;;;;;;;5105235;28;20043;-78
2021/08/24 01:08:44;;;;;;;5.95;1.70;;;;;;;;;;5118580;28;20397;-79
2021/08/24 01:11:40;;;;;;;4.13;1.67;;;;;;;;;;5116876;28;20061;-78
2021/08/24 01:14:45;;;;;;;5.85;1.90;;;;;;;;;;5116248;28;20039;-78
2021/08/24 01:17:21;;;;;;;3.90;1.80;;;;;;;;;;5101123;28;20150;-79
2021/08/24 01:19:56;;;;;;;;;;;;;;;;;;5100848;28;20035;-78
2021/08/24 01:22:46;;;;;;;4.55;2.00;;;;;;;;;;5116543;28;19907;-78
2021/08/24 01:25:22;;;;;;;7.47;2.35;;;;;;;;;;5082488;28;20447;-78
2021/08/24 01:28:06;;;;;;;;;;;;;;;;;;5095908;28;20482;-79
2021/08/24 01:31:13;;;;;;;4.35;1.20;;;;;;;;;;5095424;28;19915;-78
2021/08/24 01:34:00;;;;;;;1.95;1.20;;;;;;;;;;5059655;28;20048;-78
2021/08/24 01:36:38;;;;;;;1.83;0.95;;;;;;;;;;5078803;28;20059;-78
2021/08/24 01:39:08;;;;;;;1.90;1.42;;;;;;;;;;5079041;28;20051;-79
2021/08/24 01:41:49;;;;;;;4.63;1.63;;;;;;;;;;5078699;28;20544;-78
2021/08/24 01:44:17;;;;;;;1.73;1.20;;;;;;;;;;5097229;28;20032;-79
2021/08/24 01:47:01;;;;;;;3.42;1.63;;;;;;;;;;5095281;28;20038;-78
2021/08/24 01:49:33;;;;;;;2.85;1.63;;;;;;;;;;5075332;28;20115;-78
2021/08/24 01:52:05;;;;;;;3.80;1.75;;;;;;;;;;5058009;28;20042;-78
2021/08/24 01:54:46;;;;;;;4.82;1.55;;;;;;;;;;5058455;28;20040;-79
2021/08/24 01:57:17;;;;;;;16.73;1.98;;;;;;;;;;5078941;28;20037;-78
2021/08/24 01:59:51;;;;;;;3.65;2.03;;;;;;;;;;5074209;28;20032;-78
2021/08/24 02:02:21;;;;;;;3.42;1.17;;;;;;;;;;5075465;28;20408;-78
2021/08/24 02:04:55;;;;;;;3.17;1.63;;;;;;;;;;5077680;28;20089;-78
2021/08/24 02:07:22;;;;;;;4.20;1.73;;;;;;;;;;5060581;28;20093;-78
2021/08/24 02:09:52;;;;;;;3.63;1.80;;;;;;;;;;5078414;28;20082;-78
2021/08/24 02:12:23;;;;;;;1.35;1.25;;;;;;;;;;5076551;28;20032;-78
2021/08/24 02:14:49;;;;;;;5.03;1.48;;;;;;;;;;5076743;28;20028;-78
2021/08/24 02:17:18;;;;;;;3.53;1.67;;;;;;;;;;5076832;28;20036;-78
2021/08/24 02:19:54;;;;;;;3.90;1.42;;;;;;;;;;5060303;28;20036;-78
2021/08/24 02:22:48;;;;;;;2.72;1.45;;;;;;;;;;5076773;28;20065;-78
2021/08/24 02:25:17;;;;;;;3.17;1.20;;;;;;;;;;5075774;28;20058;-78
2021/08/24 02:27:50;;;;;;;3.88;1.25;;;;;;;;;;5059524;28;20039;-78
2021/08/24 02:30:16;;;;;;;5.40;1.08;;;;;;;;;;5076203;28;20482;-78
2021/08/24 02:32:45;;;;;;;3.45;1.55;;;;;;;;;;5117851;27;20123;-78
2021/08/24 02:35:35;;;;;;;3.63;1.02;;;;;;;;;;5116416;28;20543;-78
2021/08/24 02:38:25;;;;;;;2.33;1.13;;;;;;;;;;5116704;28;20489;-78
2021/08/24 02:41:08;;;;;;;2.72;1.00;;;;;;;;;;5116289;28;20036;-78
2021/08/24 02:43:36;;;;;;;3.58;2.10;;;;;;;;;;5116261;28;20040;-78
2021/08/24 02:46:16;;;;;;;2.50;1.30;;;;;;;;;;5098994;28;20031;-78
2021/08/24 02:48:45;;;;;;;3.45;0.70;;;;;;;;;;5117046;27;20131;-78
2021/08/24 02:51:15;;;;;;;2.85;1.42;;;;;;;;;;5090582;28;20039;-78
2021/08/24 02:53:44;;;;;;;1.33;1.20;;;;;;;;;;5057994;28;20036;-77
2021/08/24 02:56:10;;;;;;;1.67;1.00;;;;;;;;;;5058086;28;20204;-78
2021/08/24 02:58:35;;;;;;;3.70;1.20;;;;;;;;;;5058081;28;20086;-78
2021/08/24 03:01:00;;;;;;;3.08;0.95;;;;;;;;;;5057968;28;20032;-77
2021/08/24 03:03:26;;;;;;;9.55;1.48;;;;;;;;;;5076779;28;20036;-80
2021/08/24 03:05:51;;;;;;;4.25;1.25;;;;;;;;;;5061525;28;20493;-80
2021/08/24 03:08:17;;;;;;;4.90;2.67;;;;;;;;;;5060525;28;20440;-80
2021/08/24 03:10:45;;;;;;;5.05;1.52;;;;;;;;;;5078701;28;20095;-80
2021/08/24 03:13:23;;;;;;;4.30;2.05;;;;;;;;;;5060510;28;20039;-80
2021/08/24 03:16:02;;;;;;;2.22;1.50;;;;;;;;;;5061096;28;20101;-80
2021/08/24 03:18:35;;;;;;;1.55;1.25;;;;;;;;;;5078381;28;20036;-80
2021/08/24 03:21:05;;;;;;;1.90;1.13;;;;;;;;;;5080033;28;20478;-80
2021/08/24 03:23:31;;;;;;;3.30;1.50;;;;;;;;;;5081050;28;20036;-80
2021/08/24 03:25:57;;;;;;;1.38;1.27;;;;;;;;;;5076597;28;20013;-80
2021/08/24 03:28:23;;;;;;;2.92;1.88;;;;;;;;;;5076778;28;20090;-80
2021/08/24 03:30:50;;;;;;;3.53;2.08;;;;;;;;;;5060502;28;20042;-80
2021/08/24 03:33:17;;;;;;;3.92;2.30;;;;;;;;;;5061549;28;20547;-80
2021/08/24 03:35:43;;;;;;;4.45;1.85;;;;;;;;;;5060852;28;20139;-80
2021/08/24 03:38:09;;;;;;;2.35;1.67;;;;;;;;;;5060236;28;20080;-80
2021/08/24 03:40:35;;;;;;;2.28;1.88;;;;;;;;;;5076750;28;20071;-80
2021/08/24 03:43:01;;;;;;;1.40;1.30;;;;;;;;;;5077294;28;20086;-79
2021/08/24 03:45:27;;;;;;;6.35;2.08;;;;;;;;;;5075457;28;20043;-80
2021/08/24 03:47:52;;;;;;;3.47;1.75;;;;;;;;;;5060661;28;20040;-80
2021/08/24 03:50:19;;;;;;;11.07;1.83;;;;;;;;;;5078223;28;20047;-79
2021/08/24 03:52:45;;;;;;;13.77;2.78;;;;;;;;;;5060721;28;20036;-80
2021/08/24 03:55:11;;;;;;;8.55;2.25;;;;;;;;;;5092698;28;20492;-80
2021/08/24 03:57:37;;;;;;;3.90;1.85;;;;;;;;;;5079637;28;20085;-79
2021/08/24 04:00:04;;;;;;;4.38;1.52;;;;;;;;;;5097331;28;20039;-79
2021/08/24 04:02:38;;;;;;;5.70;1.55;;;;;;;;;;5098925;28;20063;-79
2021/08/24 04:05:04;;;;;;;4.38;2.00;;;;;;;;;;5079280;28;20053;-79
2021/08/24 04:07:31;;;;;;;3.33;1.95;;;;;;;;;;5098120;28;20071;-80
2021/08/24 04:09:56;;;;;;;4.18;1.60;;;;;;;;;;5096855;28;20610;-80
2021/08/24 04:12:24;;;;;;;3.63;1.95;;;;;;;;;;5097667;28;20039;-80
2021/08/24 04:14:50;;;;;;;7.40;2.10;;;;;;;;;;5063269;28;20635;-80
2021/08/24 04:17:16;;;;;;;3.00;1.50;;;;;;;;;;5097597;28;20118;-80
2021/08/24 04:19:42;;;;;;;3.10;1.50;;;;;;;;;;5080418;28;20112;-80
2021/08/24 04:22:10;;;;;;;6.07;1.63;;;;;;;;;;5081175;28;20028;-80
2021/08/24 04:24:36;;;;;;;2.35;1.60;;;;;;;;;;5096753;28;20034;-80
2021/08/24 04:27:01;;;;;;;114.25;3.50;;;;;;;;;;5080052;28;20576;-80
2021/08/24 04:29:27;;;;;;;203.52;5.13;;;;;;;;;;5079907;28;20042;-79
2021/08/24 04:31:52;;;;;;;1.75;1.55;;;;;;;;;;5080377;28;20035;-79
2021/08/24 04:34:18;;;;;;;1.08;0.98;;;;;;;;;;5093665;28;20036;-79
2021/08/24 04:36:43;;;;;;;0.65;0.65;;;;;;;;;;5116147;28;20039;-79
2021/08/24 04:39:09;;;;;;;2.00;1.17;;;;;;;;;;5110282;28;20043;-79
2021/08/24 04:41:34;;;;;;;3.13;1.65;;;;;;;;;;5095807;28;20401;-79
2021/08/24 04:44:01;;;;;;;3.80;1.48;;;;;;;;;;5098597;28;20107;-79
2021/08/24 04:46:26;;;;;;;4.75;1.60;;;;;;;;;;5097965;28;20035;-79
2021/08/24 04:48:52;;;;;;;3.60;1.58;;;;;;;;;;5097329;28;20464;-80
2021/08/24 04:51:18;;;;;;;1.85;1.33;;;;;;;;;;5096627;28;20534;-80
2021/08/24 04:53:43;;;;;;;4.80;1.50;;;;;;;;;;5079250;28;20094;-78
2021/08/24 04:56:08;;;;;;;2.65;1.50;;;;;;;;;;5078747;28;20085;-79
2021/08/24 04:58:34;;;;;;;1.42;1.23;;;;;;;;;;5079072;28;20036;-79
2021/08/24 05:01:00;;;;;;;6.35;1.70;;;;;;;;;;5079406;28;20032;-79
2021/08/24 05:03:25;;;;;;;4.85;1.98;;;;;;;;;;5096171;28;20067;-79
2021/08/24 05:05:51;;;;;;;20.02;2.00;;;;;;;;;;5078834;28;20047;-79
2021/08/24 05:08:16;;;;;;;2.33;1.85;;;;;;;;;;5095919;28;20043;-79
2021/08/24 05:10:42;;;;;;;5.22;1.50;;;;;;;;;;5059995;28;20032;-79
2021/08/24 05:13:07;;;;;;;6.53;1.80;;;;;;;;;;5058607;28;20409;-79
2021/08/24 05:15:33;;;;;;;6.13;1.85;;;;;;;;;;5076058;28;20028;-78
2021/08/24 05:17:58;;;;;;;4.30;1.70;;;;;;;;;;5075275;28;20044;-79
2021/08/24 05:20:25;;;;;;;6.53;1.73;;;;;;;;;;5075358;28;20052;-79
2021/08/24 05:22:50;;;;;;;4.53;1.60;;;;;;;;;;5075301;28;20068;-79
2021/08/24 05:25:19;;;;;;;1.85;1.50;;;;;;;;;;5076014;28;20039;-79
2021/08/24 05:27:45;;;;;;;4.00;1.88;;;;;;;;;;5076744;28;20048;-79
2021/08/24 05:30:13;;;;;;;3.80;1.77;;;;;;;;;;5075450;28;20037;-79
2021/08/24 05:32:38;;;;;;;3.08;1.55;;;;;;;;;;5075141;28;20134;-79
2021/08/24 05:35:06;;;;;;;2.42;1.73;;;;;;;;;;5075035;28;20094;-79
2021/08/24 05:37:31;;;;;;;7.63;1.42;;;;;;;;;;5078121;28;20044;-79
2021/08/24 05:39:57;;;;;;;1.80;1.48;;;;;;;;;;5093111;28;20031;-83
2021/08/24 05:42:22;;;;;;;14.05;1.60;;;;;;;;;;5090990;28;20500;-81
2021/08/24 05:44:48;;;;;;;4.85;1.85;;;;;;;;;;5108279;28;20032;-83
2021/08/24 05:47:14;;;;;;;5.90;1.70;;;;;;;;;;5125739;28;20035;-81
2021/08/24 05:49:41;;;;;;;4.35;1.60;;;;;;;;;;5111332;28;20054;-81
2021/08/24 05:52:09;;;;;;;4.30;1.73;;;;;;;;;;5108324;28;20069;-81
2021/08/24 05:54:36;;;;;;;2.33;1.77;;;;;;;;;;5109135;28;20689;-82
2021/08/24 05:57:02;;;;;;;5.30;1.80;;;;;;;;;;5123698;28;20114;-81
2021/08/24 05:59:27;;;;;;;3.10;1.70;;;;;;;;;;5123606;28;20066;-80
2021/08/24 06:01:52;;;;;;;5.40;1.60;;;;;;;;;;5127266;28;20469;-81
2021/08/24 06:04:19;;;;;;;3.08;2.13;;;;;;;;;;5107397;28;20019;-82
2021/08/24 06:06:44;;;;;;;3.80;1.88;;;;;;;;;;5107003;28;20035;-81
2021/08/24 06:09:13;;;;;;;3.97;2.05;;;;;;;;;;5101456;28;20379;-82
2021/08/24 06:11:47;;;;;;;4.32;1.80;;;;;;;;;;5087621;28;20062;-81
2021/08/24 06:14:13;;;;;;;2.75;1.80;;;;;;;;;;5086266;28;20035;-83
2021/08/24 06:16:40;;;;;;;4.95;1.73;;;;;;;;;;5088491;28;20036;-83
2021/08/24 06:19:07;;;;;;;4.55;1.90;;;;;;;;;;5103643;28;20118;-84
2021/08/24 06:21:33;;;;;;;2.55;1.70;;;;;;;;;;5086841;28;20046;-82
2021/08/24 06:23:59;;;;;;;2.47;1.80;;;;;;;;;;5105518;28;20034;-81
2021/08/24 06:26:24;;;;;;;2.10;1.67;;;;;;;;;;5104758;28;20123;-80
2021/08/24 06:28:49;;;;;;;4.35;1.83;;;;;;;;;;5087903;28;20036;-81
2021/08/24 06:31:26;;;;;;;3.53;1.98;;;;;;;;;;5104583;28;20040;-82
2021/08/24 06:33:53;;;;;;;6.88;2.38;;;;;;;;;;5107359;28;20039;-81
2021/08/24 06:36:23;;;;;;;6.85;2.38;;;;;;;;;;5088750;28;20128;-82
2021/08/24 06:38:49;;;;;;;8.02;2.45;;;;;;;;;;5084626;28;20066;-82
2021/08/24 06:41:16;;;;;;;2.45;2.15;;;;;;;;;;5067351;28;20064;-82
2021/08/24 06:43:42;;;;;;;5.78;2.60;;;;;;;;;;5083555;28;20098;-82
2021/08/24 06:46:08;;;;;;;6.53;2.30;;;;;;;;;;5083495;28;20432;-79
2021/08/24 06:48:34;;;;;;;6.43;2.47;;;;;;;;;;5081507;28;20082;-79
2021/08/24 06:51:00;;;;;;;6.15;2.83;;;;;;;;;;5081648;28;20037;-78
2021/08/24 06:53:26;;;;;;;4.97;2.67;;;;;;;;;;5080614;28;20047;-82
2021/08/24 06:55:51;;;;;;;4.65;2.25;;;;;;;;;;5081596;28;20064;-82
2021/08/24 06:58:19;;;;;;;7.28;2.40;;;;;;;;;;5081393;28;20032;-82
2021/08/24 07:00:46;;;;;;;5.78;2.58;;;;;;;;;;5065004;28;20098;-83
2021/08/24 07:03:13;;;;;;;5.60;2.85;;;;;;;;;;5080826;28;20448;-84
2021/08/24 07:05:42;;;;;;;3.60;2.38;;;;;;;;;;5082778;28;20036;-82
2021/08/24 07:08:08;;;;;;;7.47;2.25;;;;;;;;;;5080956;28;20036;-82
2021/08/24 07:10:33;;;;;;;4.43;2.42;;;;;;;;;;5081579;28;20153;-82
2021/08/24 07:12:59;;;;;;;5.68;2.40;;;;;;;;;;5101614;28;20123;-81
2021/08/24 07:15:24;;;;;;;5.72;2.38;;;;;;;;;;5084526;28;20036;-80
2021/08/24 07:17:56;;;;;;;4.93;2.40;;;;;;;;;;5087650;28;20500;-83
2021/08/24 07:20:23;;;;;;;4.00;1.90;;;;;;;;;;5087232;28;20032;-83
2021/08/24 07:22:52;;;;;;;4.00;2.20;;;;;;;;;;5087085;28;20028;-82
2021/08/24 07:25:20;;;;;;;3.13;2.03;;;;;;;;;;5086995;28;20024;-80
2021/08/24 07:27:46;;;;;;;6.60;2.03;;;;;;;;;;5102379;28;20389;-80
2021/08/24 07:30:12;;;;;;;4.47;1.90;;;;;;;;;;5103313;28;20031;-80
2021/08/24 07:32:37;;;;;;;7.97;2.13;;;;;;;;;;5095751;28;20032;-83
2021/08/24 07:35:05;;;;;;;5.35;2.05;;;;;;;;;;5065251;28;20041;-83
2021/08/24 07:37:30;;;;;;;3.60;2.00;;;;;;;;;;5066021;28;20034;-83
2021/08/24 07:39:56;;;;;;;3.10;2.03;;;;;;;;;;5095568;28;20071;-83
2021/08/24 07:42:22;;;;;;;3.33;1.98;;;;;;;;;;5084526;28;20046;-83
2021/08/24 07:44:48;;;;;;;4.43;2.28;;;;;;;;;;5082067;28;20035;-82
2021/08/24 07:47:14;;;;;;;3.53;1.75;;;;;;;;;;5099125;28;20521;-86
2021/08/24 07:49:40;;;;;;;4.45;1.83;;;;;;;;;;5084636;28;20077;-83
2021/08/24 07:52:08;;;;;;;3.83;1.90;;;;;;;;;;5103989;28;20058;-83
2021/08/24 07:54:34;;;;;;;3.38;2.03;;;;;;;;;;5103754;28;20036;-82
2021/08/24 07:57:00;;;;;;;4.53;1.90;;;;;;;;;;5085946;28;20032;-81
2021/08/24 07:59:25;;;;;;;5.00;2.17;;;;;;;;;;5101932;28;20043;-80
2021/08/24 08:01:53;;;;;;;3.13;1.80;;;;;;;;;;5099132;28;20046;-79
2021/08/24 08:04:23;;;;;;;2.17;1.50;;;;;;;;;;5081189;28;20039;-79
2021/08/24 08:06:49;;;;;;;4.72;2.35;;;;;;;;;;5097628;28;20032;-80
2021/08/24 08:09:14;;;;;;;4.35;2.17;;;;;;;;;;5080918;28;20165;-80
2021/08/24 08:11:40;;;;;;;3.17;1.90;;;;;;;;;;5100995;28;20024;-81
2021/08/24 08:14:07;;;;;;;5.80;2.80;;;;;;;;;;5082858;28;20462;-78
2021/08/24 08:16:35;;;;;;;8.75;2.90;;;;;;;;;;5098771;28;20050;-77
2021/08/24 08:19:01;;;;;;;4.30;1.98;;;;;;;;;;5101174;28;20094;-76
2021/08/24 08:21:30;;;;;;;3.70;1.90;;;;;;;;;;5073897;28;20425;-77
2021/08/24 08:23:55;;;;;;;4.15;2.00;;;;;;;;;;5089135;28;20031;-76
2021/08/24 08:26:21;;;;;;;3.25;1.80;;;;;;;;;;5113022;28;20050;-77
2021/08/24 08:28:48;;;;;;;3.88;2.30;;;;;;;;;;5112364;28;20030;-76
2021/08/24 08:31:22;;;;;;;3.15;1.92;;;;;;;;;;5112409;28;20126;-81
2021/08/24 08:33:49;;;;;;;3.03;1.98;;;;;;;;;;5102352;28;20047;-82
2021/08/24 08:36:15;;;;;;;4.85;2.20;;;;;;;;;;5066178;28;20041;-80
2021/08/24 08:38:41;;;;;;;2.58;1.80;;;;;;;;;;5079101;28;20042;-81
2021/08/24 08:41:09;;;;;;;3.13;1.63;;;;;;;;;;5095332;28;20496;-80
2021/08/24 08:43:41;;;;;;;3.25;2.10;;;;;;;;;;5088067;28;20104;-79
2021/08/24 08:46:22;;;;;;;2.78;1.70;;;;;;;;;;5093976;28;20035;-77
2021/08/24 08:48:51;;;;;;;2.20;1.50;;;;;;;;;;5097285;28;20548;-76
2021/08/24 08:51:28;;;;;;;3.22;1.83;;;;;;;;;;5095235;28;20078;-77
2021/08/24 08:54:18;;;;;;;3.50;1.80;;;;;;;;;;5097423;28;20036;-81
2021/08/24 08:57:05;;;;;;;2.35;1.60;;;;;;;;;;5116076;28;20066;-78
2021/08/24 08:59:55;;;;;;;3.22;2.10;;;;;;;;;;5112765;28;20046;-77
2021/08/24 09:02:36;;;;;;;3.03;2.05;;;;;;;;;;5096773;28;20038;-79
2021/08/24 09:05:05;;;;;;;2.95;2.15;;;;;;;;;;5110215;28;20032;-78
2021/08/24 09:07:38;;;;;;;3.45;1.88;;;;;;;;;;5095365;28;20027;-79
2021/08/24 09:10:14;;;;;;;2.95;1.60;;;;;;;;;;5083075;28;20031;-79
2021/08/24 09:12:42;;;;;;;2.67;1.50;;;;;;;;;;5074260;28;20043;-79
2021/08/24 09:15:15;;;;;;;4.03;1.95;;;;;;;;;;5074393;28;20036;-81
2021/08/24 09:17:41;;;;;;;5.30;2.00;;;;;;;;;;5103572;28;20039;-81
2021/08/24 09:20:23;;;;;;;3.30;1.80;;;;;;;;;;5116657;28;20035;-82
2021/08/24 09:22:49;;;;;;;3.08;1.67;;;;;;;;;;5117029;28;20034;-81
2021/08/24 09:25:19;;;;;;;3.75;2.28;;;;;;;;;;5100217;28;20159;-81
2021/08/24 09:28:06;;;;;;;1.77;1.25;;;;;;;;;;5116918;28;20035;-81
2021/08/24 09:30:32;;;;;;;4.38;1.90;;;;;;;;;;5099611;28;20038;-81
2021/08/24 09:33:05;;;;;;;2.63;1.45;;;;;;;;;;5109602;28;20036;-81
2021/08/24 09:35:39;;;;;;;2.30;1.58;;;;;;;;;;5079510;28;20047;-81
2021/08/24 09:38:24;;;;;;;3.90;2.10;;;;;;;;;;5096246;28;20158;-81
2021/08/24 09:40:55;;;;;;;6.20;2.13;;;;;;;;;;5097532;28;20118;-81
2021/08/24 09:43:37;;;;;;;4.05;2.13;;;;;;;;;;5096582;28;20042;-81
2021/08/24 09:46:52;;;;;;;2.58;1.50;;;;;;;;;;5096280;28;20115;-81
2021/08/24 09:49:20;;;;;;;2.97;1.80;;;;;;;;;;5094735;28;20050;-81
2021/08/24 09:51:57;;;;;;;2.88;2.00;;;;;;;;;;5117140;28;20036;-81
2021/08/24 09:54:38;;;;;;;4.35;1.70;;;;;;;;;;5113846;28;20718;-81
2021/08/24 09:57:16;;;;;;;3.65;1.67;;;;;;;;;;5078800;28;20542;-81
2021/08/24 10:00:05;;;;;;;6.65;1.65;;;;;;;;;;5109643;28;20031;-81
2021/08/24 10:02:42;;;;;;;4.32;2.03;;;;;;;;;;5111377;28;20047;-81
2021/08/24 10:05:15;;;;;;;9.10;2.08;;;;;;;;;;5117993;28;20477;-81
2021/08/24 10:07:46;;;;;;;3.42;2.05;;;;;;;;;;5116024;28;20477;-81
2021/08/24 10:10:26;;;;;;;2.28;1.65;;;;;;;;;;5116498;28;20451;-81
2021/08/24 10:12:53;;;;;;;5.68;2.03;;;;;;;;;;5099691;28;20032;-81
2021/08/24 10:15:31;;;;;;;3.13;1.85;;;;;;;;;;5107754;28;20020;-81
2021/08/24 10:18:03;;;;;;;3.03;1.95;;;;;;;;;;5094256;28;20035;-81
2021/08/24 10:20:35;;;;;;;4.35;1.85;;;;;;;;;;5114125;28;20114;-82
2021/08/24 10:23:06;;;;;;;3.10;1.70;;;;;;;;;;5114511;28;20092;-81
2021/08/24 10:25:42;;;;;;;3.92;1.80;;;;;;;;;;5113969;28;20123;-81
2021/08/24 10:28:11;;;;;;;;;;;;;;;;;;5119064;28;20031;-81
2021/08/24 10:31:05;;;;;;;3.75;1.70;;;;;;;;;;5087320;28;19916;-81
2021/08/24 10:33:40;;;;;;;3.67;1.77;;;;;;;;;;5062933;28;20047;-80
2021/08/24 10:36:28;;;;;;;2.63;1.58;;;;;;;;;;5119770;28;20054;-81
2021/08/24 10:38:58;;;;;;;5.38;1.70;;;;;;;;;;5115657;28;20047;-77
2021/08/24 10:41:40;;;;;;;5.13;1.45;;;;;;;;;;5116298;28;20035;-81
2021/08/24 10:44:25;;;;;;;3.47;1.75;;;;;;;;;;5119494;28;20550;-82
2021/08/24 10:47:00;;;;;;;2.15;1.48;;;;;;;;;;5120010;28;20046;-80
2021/08/24 10:49:26;;;;;;;3.17;1.55;;;;;;;;;;5113959;28;20061;-81
2021/08/24 10:52:04;;;;;;;3.45;1.70;;;;;;;;;;5120200;27;20040;-81
2021/08/24 10:54:39;;;;;;;2.47;1.38;;;;;;;;;;5110843;28;20510;-80
2021/08/24 10:57:19;;;;;;;2.58;1.77;;;;;;;;;;5091866;28;20044;-83
2021/08/24 11:00:00;;;;;;;2.50;1.42;;;;;;;;;;5081107;28;20048;-85
2021/08/24 11:02:49;;;;;;;7.13;1.75;;;;;;;;;;5063569;28;20036;-83
2021/08/24 11:05:36;;;;;;;2.88;1.92;;;;;;;;;;5078804;28;20036;-82
2021/08/24 11:08:11;;;;;;;2.47;1.40;;;;;;;;;;5081777;28;20055;-84
2021/08/24 11:11:01;;;;;;;3.13;1.70;;;;;;;;;;5080409;28;20117;-83
2021/08/24 11:14:20;;;;;;;4.82;1.73;;;;;;;;;;5079661;28;20547;-80
2021/08/24 11:17:10;;;;;;;2.72;1.63;;;;;;;;;;5048087;28;20049;-80
2021/08/24 11:19:56;;;;;;;2.55;1.60;;;;;;;;;;5081229;28;20540;-82
2021/08/24 11:22:31;;;;;;;7.18;1.40;;;;;;;;;;5076988;28;20032;-77
2021/08/24 11:25:19;;;;;;;2.20;1.48;;;;;;;;;;5080017;28;20028;-78
2021/08/24 11:27:54;;;;;;;2.53;1.55;;;;;;;;;;5076803;28;20033;-77
2021/08/24 11:30:27;;;;;;;5.35;1.98;;;;;;;;;;5081724;28;20036;-78
2021/08/24 11:33:01;;;;;;;3.00;1.35;;;;;;;;;;5085141;28;20038;-79
2021/08/24 11:35:42;;;;;;;2.25;1.65;;;;;;;;;;5068076;28;20040;-79
2021/08/24 11:38:12;;;;;;;1.92;1.60;;;;;;;;;;5066349;28;20036;-82
2021/08/24 11:41:02;;;;;;;4.22;2.10;;;;;;;;;;5066424;28;20040;-79
2021/08/24 11:43:38;;;;;;;3.78;1.75;;;;;;;;;;5067413;28;20055;-80
2021/08/24 11:46:10;;;;;;;3.75;1.73;;;;;;;;;;5062743;28;20254;-81
2021/08/24 11:48:42;;;;;;;7.88;2.03;;;;;;;;;;5063034;28;20032;-80
2021/08/24 11:51:26;;;;;;;3.05;1.70;;;;;;;;;;5079563;28;20032;-81
2021/08/24 11:54:20;;;;;;;3.10;1.70;;;;;;;;;;5062283;28;20039;-81
2021/08/24 11:57:18;;;;;;;3.47;1.60;;;;;;;;;;5061608;28;20052;-81
2021/08/24 11:59:47;;;;;;;3.60;2.05;;;;;;;;;;5078942;28;20032;-82
2021/08/24 12:02:22;;;;;;;3.25;1.67;;;;;;;;;;5058949;28;20040;-80
2021/08/24 12:04:48;;;;;;;3.00;1.60;;;;;;;;;;5074261;28;20378;-78
2021/08/24 12:07:26;;;;;;;3.65;2.17;;;;;;;;;;5091600;28;20089;-78
2021/08/24 12:09:54;;;;;;;4.57;2.70;;;;;;;;;;5075452;28;20041;-78
2021/08/24 12:12:25;;;;;;;6.57;1.95;;;;;;;;;;5091334;28;20039;-79
2021/08/24 12:14:58;;;;;;;2.67;1.92;;;;;;;;;;5058206;28;20096;-81
2021/08/24 12:17:30;;;;;;;2.03;1.60;;;;;;;;;;5058545;28;20154;-81
2021/08/24 12:20:03;;;;;;;4.95;1.85;;;;;;;;;;5092711;28;20177;-80
2021/08/24 12:22:54;;;;;;;5.43;1.75;;;;;;;;;;5079431;28;20509;-81
2021/08/24 12:25:42;;;;;;;2.08;1.60;;;;;;;;;;5095607;28;20044;-81
2021/08/24 12:28:16;;;;;;;2.75;1.70;;;;;;;;;;5095240;28;20089;-81
2021/08/24 12:31:00;;;;;;;6.38;2.13;;;;;;;;;;5095716;28;20444;-80
2021/08/24 12:33:34;;;;;;;3.55;2.00;;;;;;;;;;5095545;28;20051;-80
2021/08/24 12:36:21;;;;;;;3.08;1.70;;;;;;;;;;5095181;28;20040;-81
2021/08/24 12:38:51;;;;;;;2.88;1.92;;;;;;;;;;5078466;28;20087;-81
2021/08/24 12:41:32;;;;;;;8.32;2.15;;;;;;;;;;5078495;28;20043;-81
2021/08/24 12:44:12;;;;;;;3.75;1.73;;;;;;;;;;5094179;28;20040;-81
2021/08/24 12:46:40;;;;;;;2.63;1.50;;;;;;;;;;5094425;28;20036;-81
2021/08/24 12:49:11;;;;;;;1.92;1.55;;;;;;;;;;5094644;28;20047;-81
2021/08/24 12:51:48;;;;;;;3.15;1.35;;;;;;;;;;5095352;28;20039;-81
2021/08/24 12:54:16;;;;;;;7.13;1.33;;;;;;;;;;5093957;28;20032;-81
2021/08/24 12:57:09;;;;;;;3.28;1.52;;;;;;;;;;5078171;28;20028;-81
2021/08/24 12:59:37;;;;;;;3.80;1.70;;;;;;;;;;5094818;28;20382;-81
2021/08/24 13:02:30;;;;;;;4.57;1.88;;;;;;;;;;5078223;28;20044;-81
2021/08/24 13:05:20;;;;;;;2.80;1.75;;;;;;;;;;5078285;28;20063;-81
2021/08/24 13:08:08;;;;;;;3.33;1.90;;;;;;;;;;5078447;28;20043;-81
2021/08/24 13:10:50;;;;;;;3.25;1.60;;;;;;;;;;5095296;28;20051;-81
2021/08/24 13:13:27;;;;;;;5.53;1.70;;;;;;;;;;5077507;28;20488;-81
2021/08/24 13:15:55;;;;;;;2.42;1.50;;;;;;;;;;5094435;28;20039;-81
2021/08/24 13:18:24;;;;;;;3.40;1.60;;;;;;;;;;5079988;28;20104;-81
2021/08/24 13:20:51;;;;;;;3.60;1.50;;;;;;;;;;5108723;28;20039;-82
2021/08/24 13:23:16;;;;;;;3.28;2.00;;;;;;;;;;5107150;28;20400;-81
2021/08/24 13:25:50;;;;;;;2.90;1.95;;;;;;;;;;5089039;28;20107;-81
2021/08/24 13:28:16;;;;;;;7.45;1.85;;;;;;;;;;5105248;28;20100;-81
2021/08/24 13:30:46;;;;;;;2.03;1.60;;;;;;;;;;5087188;28;20032;-81
2021/08/24 13:33:19;;;;;;;3.55;2.00;;;;;;;;;;5088712;28;20110;-81
2021/08/24 13:36:17;;;;;;;2.13;1.80;;;;;;;;;;5087997;28;20044;-81
2021/08/24 13:38:51;;;;;;;3.17;1.95;;;;;;;;;;5104440;28;20040;-81
2021/08/24 13:41:24;;;;;;;2.47;1.88;;;;;;;;;;5084004;28;20482;-81
2021/08/24 13:43:53;;;;;;;3.33;1.95;;;;;;;;;;5092849;28;20489;-81
2021/08/24 13:46:33;;;;;;;2.95;1.95;;;;;;;;;;5103281;28;20040;-81
2021/08/24 13:49:01;;;;;;;2.47;1.58;;;;;;;;;;5090406;28;20036;-81
2021/08/24 13:51:27;;;;;;;5.18;1.70;;;;;;;;;;5106904;28;20051;-81
2021/08/24 13:53:56;;;;;;;3.92;2.05;;;;;;;;;;5104965;28;20043;-81
2021/08/24 13:56:32;;;;;;;4.45;2.13;;;;;;;;;;5105758;28;20032;-81
2021/08/24 13:58:59;;;;;;;2.72;1.65;;;;;;;;;;5107244;28;20062;-82
2021/08/24 14:01:28;;;;;;;5.88;2.00;;;;;;;;;;5092922;28;20439;-81
2021/08/24 14:03:58;;;;;;;3.20;1.80;;;;;;;;;;5091216;28;20039;-81
2021/08/24 14:06:33;;;;;;;2.55;1.80;;;;;;;;;;5107185;28;20130;-81
2021/08/24 14:09:28;;;;;;;2.70;1.42;;;;;;;;;;5090029;28;20047;-81
2021/08/24 14:11:56;;;;;;;2.90;1.95;;;;;;;;;;5085015;28;20032;-81
2021/08/24 14:15:08;;;;;;;3.70;1.83;;;;;;;;;;5088792;28;20054;-81
2021/08/24 14:17:40;;;;;;;10.50;2.63;;;;;;;;;;5053863;28;20404;-82
2021/08/24 14:20:23;;;;;;;3.53;2.53;;;;;;;;;;5086990;28;20032;-82
2021/08/24 14:22:52;;;;;;;5.20;2.05;;;;;;;;;;5087626;28;20058;-84
2021/08/24 14:25:25;;;;;;;3.60;2.03;;;;;;;;;;5088284;28;20077;-85
2021/08/24 14:27:51;;;;;;;6.10;2.00;;;;;;;;;;5089330;28;20042;-85
2021/08/24 14:30:17;;;;;;;5.57;1.73;;;;;;;;;;5108249;28;20052;-85
2021/08/24 14:32:45;;;;;;;3.40;1.70;;;;;;;;;;5091780;28;20059;-84
2021/08/24 14:35:49;;;;;;;3.50;2.08;;;;;;;;;;5092253;28;20043;-84
2021/08/24 14:38:34;;;;;;;7.07;2.13;;;;;;;;;;5093246;28;20039;-84
2021/08/24 14:41:17;;;;;;;3.03;1.90;;;;;;;;;;5088410;28;20037;-84
2021/08/24 14:43:46;;;;;;;3.53;1.98;;;;;;;;;;5066122;28;20032;-86
2021/08/24 14:46:21;;;;;;;7.22;2.08;;;;;;;;;;5086711;28;20036;-86
2021/08/24 14:48:57;;;;;;;6.47;2.35;;;;;;;;;;5093162;28;20036;-85
2021/08/24 14:51:23;;;;;;;2.67;1.75;;;;;;;;;;5091395;28;20042;-85
2021/08/24 14:53:54;;;;;;;2.85;1.88;;;;;;;;;;5092131;28;20048;-84
2021/08/24 14:56:33;;;;;;;3.78;1.92;;;;;;;;;;5070523;28;20109;-85
2021/08/24 14:59:10;;;;;;;2.80;1.88;;;;;;;;;;5071302;28;20059;-84
2021/08/24 15:01:37;;;;;;;2.88;1.70;;;;;;;;;;5068716;28;20032;-84
2021/08/24 15:04:07;;;;;;;9.95;3.45;;;;;;;;;;5085157;28;20036;-86
2021/08/24 15:06:36;;;;;;;3.92;1.80;;;;;;;;;;5107664;28;20058;-86
2021/08/24 15:09:32;;;;;;;3.97;1.85;;;;;;;;;;5095960;28;20046;-86
2021/08/24 15:12:05;;;;;;;3.17;1.77;;;;;;;;;;5084862;28;20058;-84
2021/08/24 15:14:35;;;;;;;3.53;2.08;;;;;;;;;;5099723;28;20370;-84